Time;durP1;ratioP1;P1;durP2;ratioP2;P2;SDS_P1;SDS_P2;PMS_P1;PMS_P2;Temp;Humidity;BMP_temperature;BMP_pressure;BME280_temperature;BME280_humidity;BME280_pressure;Samples;Min_cycle;Max_cycle;Signal;HPM_P1;HPM_P2
2022/04/13 00:00:07;;;;;;;8.00;6.30;;;;;;;;;;5077715;28;24562;-53
2022/04/13 00:02:32;;;;;;;9.85;7.22;;;;;;;;;;5081810;28;25050;-53
2022/04/13 00:04:58;;;;;;;7.95;6.00;;;;;;;;;;5071198;28;24458;-53
2022/04/13 00:07:23;;;;;;;7.90;6.82;;;;;;;;;;5069448;28;24773;-54
2022/04/13 00:09:49;;;;;;;10.52;6.88;;;;;;;;;;5070711;28;24556;-53
2022/04/13 00:12:14;;;;;;;8.00;6.60;;;;;;;;;;5070583;28;24411;-53
2022/04/13 00:14:39;;;;;;;8.05;6.65;;;;;;;;;;5077486;28;24491;-54
2022/04/13 00:17:04;;;;;;;7.60;6.50;;;;;;;;;;5087943;28;24514;-54
2022/04/13 00:19:29;;;;;;;8.33;7.00;;;;;;;;;;5075242;28;24530;-53
2022/04/13 00:21:56;;;;;;;8.50;7.10;;;;;;;;;;5085250;28;24568;-53
2022/04/13 00:24:21;;;;;;;7.95;6.93;;;;;;;;;;5077022;28;24429;-54
2022/04/13 00:26:46;;;;;;;8.05;6.90;;;;;;;;;;5073042;28;24426;-54
2022/04/13 00:29:11;;;;;;;9.30;7.20;;;;;;;;;;5075792;28;24499;-53
2022/04/13 00:31:36;;;;;;;8.97;6.80;;;;;;;;;;5080467;28;25095;-53
2022/04/13 00:34:02;;;;;;;8.70;6.57;;;;;;;;;;5074066;28;24507;-53
2022/04/13 00:36:27;;;;;;;8.93;6.72;;;;;;;;;;5077754;28;24422;-53
2022/04/13 00:38:52;;;;;;;9.50;6.87;;;;;;;;;;5085845;28;24442;-53
2022/04/13 00:41:17;;;;;;;9.02;6.55;;;;;;;;;;5083951;28;24426;-53
2022/04/13 00:43:43;;;;;;;9.70;7.87;;;;;;;;;;5077695;28;24426;-53
2022/04/13 00:46:08;;;;;;;9.13;7.10;;;;;;;;;;5082358;28;24586;-53
2022/04/13 00:48:39;;;;;;;9.70;7.40;;;;;;;;;;5084166;28;24455;-53
2022/04/13 00:51:04;;;;;;;9.10;6.97;;;;;;;;;;5074358;28;24410;-53
2022/04/13 00:53:30;;;;;;;7.63;6.80;;;;;;;;;;5072959;28;24484;-53
2022/04/13 00:55:57;;;;;;;8.73;7.15;;;;;;;;;;5071979;28;24414;-52
2022/04/13 00:58:23;;;;;;;8.80;7.00;;;;;;;;;;5066988;28;24429;-53
2022/04/13 01:00:49;;;;;;;9.43;7.05;;;;;;;;;;5068883;28;24530;-53
2022/04/13 01:03:18;;;;;;;9.50;7.23;;;;;;;;;;5082030;28;25378;-53
2022/04/13 01:05:44;;;;;;;8.65;7.20;;;;;;;;;;5085760;28;24426;-53
2022/04/13 01:08:10;;;;;;;8.73;7.10;;;;;;;;;;5074372;28;24429;-53
2022/04/13 01:10:35;;;;;;;8.00;6.57;;;;;;;;;;5069188;28;24470;-53
2022/04/13 01:13:02;;;;;;;8.20;6.83;;;;;;;;;;5075363;28;24460;-53
2022/04/13 01:15:27;;;;;;;8.68;7.25;;;;;;;;;;5069498;28;25426;-53
2022/04/13 01:17:53;;;;;;;8.38;6.90;;;;;;;;;;5073054;28;24426;-53
2022/04/13 01:20:22;;;;;;;9.00;7.57;;;;;;;;;;5064845;28;24429;-52
2022/04/13 01:22:47;;;;;;;8.20;7.30;;;;;;;;;;5066893;28;24499;-53
2022/04/13 01:25:12;;;;;;;7.47;6.70;;;;;;;;;;5072574;28;24545;-54
2022/04/13 01:27:37;;;;;;;8.30;6.72;;;;;;;;;;5070978;28;24414;-53
2022/04/13 01:30:05;;;;;;;7.70;6.90;;;;;;;;;;5076550;28;24482;-53
2022/04/13 01:32:30;;;;;;;9.70;7.60;;;;;;;;;;5071529;28;24429;-53
2022/04/13 01:34:55;;;;;;;8.73;7.50;;;;;;;;;;5080047;28;24422;-53
2022/04/13 01:37:20;;;;;;;9.00;7.20;;;;;;;;;;5071048;28;24438;-53
2022/04/13 01:39:46;;;;;;;9.63;7.80;;;;;;;;;;5065537;28;24462;-54
2022/04/13 01:42:11;;;;;;;9.77;7.70;;;;;;;;;;5077971;28;24823;-53
2022/04/13 01:44:36;;;;;;;9.80;7.50;;;;;;;;;;5076692;28;24427;-53
2022/04/13 01:47:01;;;;;;;10.60;8.50;;;;;;;;;;5068963;28;24514;-53
2022/04/13 01:49:26;;;;;;;10.93;8.00;;;;;;;;;;5070477;28;24439;-53
2022/04/13 01:51:52;;;;;;;8.77;7.55;;;;;;;;;;5078462;28;24514;-51
2022/04/13 01:54:17;;;;;;;9.80;8.23;;;;;;;;;;5068089;28;24454;-52
2022/04/13 01:56:42;;;;;;;10.25;8.65;;;;;;;;;;5077226;28;25054;-52
2022/04/13 01:59:07;;;;;;;10.88;8.70;;;;;;;;;;5070531;28;24425;-53
2022/04/13 02:01:34;;;;;;;10.90;8.50;;;;;;;;;;5076019;28;24529;-52
2022/04/13 02:04:00;;;;;;;11.17;9.83;;;;;;;;;;5073544;28;24988;-53
2022/04/13 02:06:25;;;;;;;11.88;8.68;;;;;;;;;;5076340;28;24433;-54
2022/04/13 02:08:50;;;;;;;11.10;8.17;;;;;;;;;;5081864;28;25102;-53
2022/04/13 02:11:15;;;;;;;8.75;7.70;;;;;;;;;;5069349;28;24430;-53
2022/04/13 02:13:40;;;;;;;10.63;8.43;;;;;;;;;;5065863;28;24565;-53
2022/04/13 02:16:06;;;;;;;9.20;8.20;;;;;;;;;;5067465;28;24418;-53
2022/04/13 02:18:31;;;;;;;10.90;8.60;;;;;;;;;;5086351;28;24410;-54
2022/04/13 02:20:56;;;;;;;9.10;8.00;;;;;;;;;;5079698;28;24436;-53
2022/04/13 02:23:21;;;;;;;10.40;7.73;;;;;;;;;;5081258;28;24784;-53
2022/04/13 02:25:46;;;;;;;8.70;7.80;;;;;;;;;;5069224;28;24525;-53
2022/04/13 02:28:11;;;;;;;10.10;8.43;;;;;;;;;;5077778;28;24675;-52
2022/04/13 02:30:37;;;;;;;8.75;7.70;;;;;;;;;;5080462;28;24478;-53
2022/04/13 02:33:02;;;;;;;10.50;8.07;;;;;;;;;;5082662;28;24402;-53
2022/04/13 02:35:27;;;;;;;10.25;8.50;;;;;;;;;;5085410;28;24406;-53
2022/04/13 02:37:53;;;;;;;10.95;8.40;;;;;;;;;;5086611;28;24525;-53
2022/04/13 02:40:19;;;;;;;10.15;8.57;;;;;;;;;;5074177;28;25020;-53
2022/04/13 02:42:45;;;;;;;11.05;8.48;;;;;;;;;;5073089;28;24514;-53
2022/04/13 02:45:10;;;;;;;10.50;8.50;;;;;;;;;;5075246;28;24564;-53
2022/04/13 02:47:35;;;;;;;9.47;7.90;;;;;;;;;;5073675;28;24964;-53
2022/04/13 02:50:00;;;;;;;9.30;8.30;;;;;;;;;;5082493;28;24441;-53
2022/04/13 02:52:28;;;;;;;11.00;8.30;;;;;;;;;;5070787;28;24429;-53
2022/04/13 02:54:53;;;;;;;10.13;8.30;;;;;;;;;;5084874;28;24513;-51
2022/04/13 02:57:18;;;;;;;9.60;8.23;;;;;;;;;;5078480;28;24573;-52
2022/04/13 02:59:46;;;;;;;9.18;7.93;;;;;;;;;;5072899;28;24410;-53
2022/04/13 03:02:11;;;;;;;11.90;8.80;;;;;;;;;;5071371;28;24942;-52
2022/04/13 03:04:37;;;;;;;12.03;8.30;;;;;;;;;;5068607;28;24423;-53
2022/04/13 03:07:02;;;;;;;11.63;8.70;;;;;;;;;;5067610;28;24772;-53
2022/04/13 03:09:27;;;;;;;11.40;8.77;;;;;;;;;;5066688;28;24439;-54
2022/04/13 03:11:52;;;;;;;10.90;8.40;;;;;;;;;;5073572;28;24418;-54
2022/04/13 03:14:18;;;;;;;10.32;8.15;;;;;;;;;;5066656;28;24809;-52
2022/04/13 03:16:44;;;;;;;10.60;8.90;;;;;;;;;;5086210;28;24415;-53
2022/04/13 03:19:09;;;;;;;10.20;8.10;;;;;;;;;;5075964;28;25101;-53
2022/04/13 03:21:34;;;;;;;9.95;8.55;;;;;;;;;;5083300;28;24512;-53
2022/04/13 03:23:59;;;;;;;11.30;9.13;;;;;;;;;;5077708;28;24414;-53
2022/04/13 03:26:24;;;;;;;10.80;8.02;;;;;;;;;;5074611;28;24430;-53
2022/04/13 03:28:49;;;;;;;11.23;8.27;;;;;;;;;;5062770;28;24440;-53
2022/04/13 03:31:16;;;;;;;10.15;8.60;;;;;;;;;;5076283;28;24499;-53
2022/04/13 03:33:41;;;;;;;10.70;8.60;;;;;;;;;;5075666;28;24528;-53
2022/04/13 03:36:06;;;;;;;10.50;8.80;;;;;;;;;;5071016;28;24418;-53
2022/04/13 03:38:32;;;;;;;10.90;9.00;;;;;;;;;;5078689;28;24505;-53
2022/04/13 03:40:57;;;;;;;10.48;8.38;;;;;;;;;;5081049;28;24419;-53
2022/04/13 03:43:22;;;;;;;10.23;8.15;;;;;;;;;;5065882;28;24472;-54
2022/04/13 03:45:47;;;;;;;10.83;8.40;;;;;;;;;;5072575;28;24435;-53
2022/04/13 03:48:12;;;;;;;10.50;8.27;;;;;;;;;;5077016;28;24414;-53
2022/04/13 03:50:37;;;;;;;10.00;8.40;;;;;;;;;;5075465;28;24487;-53
2022/04/13 03:53:03;;;;;;;10.30;8.32;;;;;;;;;;5072547;28;24889;-53
2022/04/13 03:55:28;;;;;;;11.77;8.70;;;;;;;;;;5066253;28;24472;-53
2022/04/13 03:57:53;;;;;;;11.10;8.77;;;;;;;;;;5081070;28;24544;-53
2022/04/13 04:00:18;;;;;;;11.93;8.55;;;;;;;;;;5072226;28;24418;-53
2022/04/13 04:02:43;;;;;;;11.17;8.20;;;;;;;;;;5067160;28;24567;-52
2022/04/13 04:05:09;;;;;;;10.00;8.20;;;;;;;;;;5083722;28;24505;-53
2022/04/13 04:07:34;;;;;;;10.85;8.20;;;;;;;;;;5080616;28;24437;-52
2022/04/13 04:09:59;;;;;;;10.50;9.03;;;;;;;;;;5083303;28;24722;-53
2022/04/13 04:12:24;;;;;;;11.07;8.53;;;;;;;;;;5071989;28;24472;-53
2022/04/13 04:14:49;;;;;;;13.18;8.77;;;;;;;;;;5075747;28;24411;-53
2022/04/13 04:17:14;;;;;;;10.55;8.90;;;;;;;;;;5066035;28;24419;-54
2022/04/13 04:19:40;;;;;;;11.52;8.40;;;;;;;;;;5070453;28;24425;-53
2022/04/13 04:22:05;;;;;;;11.10;8.57;;;;;;;;;;5073022;28;24908;-54
2022/04/13 04:24:30;;;;;;;11.98;8.70;;;;;;;;;;5068362;28;24422;-54
2022/04/13 04:27:07;;;;;;;11.40;8.67;;;;;;;;;;5063926;28;24858;-54
2022/04/13 04:29:32;;;;;;;9.43;8.27;;;;;;;;;;5069245;28;25080;-54
2022/04/13 04:31:59;;;;;;;10.20;8.50;;;;;;;;;;5069039;28;24987;-53
2022/04/13 04:34:25;;;;;;;11.23;9.00;;;;;;;;;;5068104;28;24437;-53
2022/04/13 04:36:50;;;;;;;11.45;8.90;;;;;;;;;;5075379;28;24425;-54
2022/04/13 04:39:16;;;;;;;12.73;8.87;;;;;;;;;;5073238;28;25276;-53
2022/04/13 04:41:41;;;;;;;10.90;9.10;;;;;;;;;;5077180;28;24475;-53
2022/04/13 04:44:08;;;;;;;12.10;9.20;;;;;;;;;;5075269;28;25290;-53
2022/04/13 04:46:33;;;;;;;10.52;8.30;;;;;;;;;;5077501;28;24479;-53
2022/04/13 04:48:58;;;;;;;11.13;8.93;;;;;;;;;;5066265;28;24445;-53
2022/04/13 04:51:23;;;;;;;12.30;8.83;;;;;;;;;;5076512;28;24573;-53
2022/04/13 04:53:49;;;;;;;10.18;8.35;;;;;;;;;;5069688;28;24785;-53
2022/04/13 04:56:14;;;;;;;12.70;8.90;;;;;;;;;;5073543;28;25026;-53
2022/04/13 04:58:40;;;;;;;11.97;8.53;;;;;;;;;;5071341;28;24617;-53
2022/04/13 05:01:05;;;;;;;12.43;8.95;;;;;;;;;;5073784;28;24646;-53
2022/04/13 05:03:32;;;;;;;11.47;9.60;;;;;;;;;;5069909;28;24414;-52
2022/04/13 05:05:57;;;;;;;13.23;9.95;;;;;;;;;;5074002;28;24422;-53
2022/04/13 05:08:22;;;;;;;13.27;10.20;;;;;;;;;;5071656;28;24426;-52
2022/04/13 05:10:51;;;;;;;13.23;10.02;;;;;;;;;;5072713;28;24462;-53
2022/04/13 05:13:16;;;;;;;13.53;10.30;;;;;;;;;;5072684;28;24510;-55
2022/04/13 05:15:41;;;;;;;12.43;9.20;;;;;;;;;;5076748;28;24427;-53
2022/04/13 05:18:06;;;;;;;12.03;9.80;;;;;;;;;;5070491;28;24461;-53
2022/04/13 05:20:32;;;;;;;11.57;9.38;;;;;;;;;;5074130;28;24821;-53
2022/04/13 05:22:57;;;;;;;15.35;10.70;;;;;;;;;;5070256;28;24529;-53
2022/04/13 05:25:22;;;;;;;11.20;9.20;;;;;;;;;;5077671;28;24458;-52
2022/04/13 05:27:47;;;;;;;10.20;9.00;;;;;;;;;;5081908;28;24575;-53
2022/04/13 05:30:14;;;;;;;11.70;9.00;;;;;;;;;;5077954;28;24450;-53
2022/04/13 05:32:49;;;;;;;11.25;9.38;;;;;;;;;;5071574;28;24442;-53
2022/04/13 05:35:14;;;;;;;12.02;9.10;;;;;;;;;;5088287;28;24823;-53
2022/04/13 05:37:39;;;;;;;11.23;8.93;;;;;;;;;;5088253;28;24501;-54
2022/04/13 05:40:05;;;;;;;9.65;8.52;;;;;;;;;;5082584;28;24526;-53
2022/04/13 05:42:30;;;;;;;11.03;8.80;;;;;;;;;;5088318;28;24417;-53
2022/04/13 05:44:56;;;;;;;12.00;9.00;;;;;;;;;;5087942;28;24433;-53
2022/04/13 05:47:22;;;;;;;10.93;9.07;;;;;;;;;;5088432;28;24401;-53
2022/04/13 05:49:47;;;;;;;9.65;8.57;;;;;;;;;;5086066;28;24809;-53
2022/04/13 05:52:12;;;;;;;12.32;9.52;;;;;;;;;;5069151;28;24552;-53
2022/04/13 05:54:37;;;;;;;10.90;8.70;;;;;;;;;;5074907;28;24518;-53
2022/04/13 05:57:03;;;;;;;12.00;8.80;;;;;;;;;;5080318;28;24431;-53
2022/04/13 05:59:28;;;;;;;11.70;9.33;;;;;;;;;;5081423;28;24781;-53
2022/04/13 06:01:53;;;;;;;11.47;9.30;;;;;;;;;;5075149;28;24631;-53
2022/04/13 06:04:18;;;;;;;12.80;9.20;;;;;;;;;;5071844;28;24498;-53
2022/04/13 06:06:43;;;;;;;11.75;9.00;;;;;;;;;;5073392;28;24522;-53
2022/04/13 06:09:09;;;;;;;12.48;9.20;;;;;;;;;;5075461;28;24506;-53
2022/04/13 06:11:34;;;;;;;12.27;9.15;;;;;;;;;;5075982;28;25032;-53
2022/04/13 06:13:59;;;;;;;11.90;9.05;;;;;;;;;;5077067;28;24476;-54
2022/04/13 06:16:24;;;;;;;10.73;9.10;;;;;;;;;;5083330;28;24506;-53
2022/04/13 06:18:49;;;;;;;13.40;9.30;;;;;;;;;;5082448;28;25039;-54
2022/04/13 06:21:38;;;;;;;12.33;9.70;;;;;;;;;;5077151;28;24418;-54
2022/04/13 06:24:04;;;;;;;10.90;9.00;;;;;;;;;;5073374;28;25344;-54
2022/04/13 06:26:29;;;;;;;14.23;10.20;;;;;;;;;;5067574;28;24435;-52
2022/04/13 06:28:54;;;;;;;13.48;10.13;;;;;;;;;;5085691;28;25016;-53
2022/04/13 06:31:19;;;;;;;10.73;9.30;;;;;;;;;;5074397;28;25051;-54
2022/04/13 06:33:45;;;;;;;11.70;8.85;;;;;;;;;;5076152;28;24475;-54
2022/04/13 06:36:10;;;;;;;10.20;8.90;;;;;;;;;;5070128;28;24442;-54
2022/04/13 06:38:35;;;;;;;10.93;8.60;;;;;;;;;;5081607;28;25028;-53
2022/04/13 06:41:00;;;;;;;12.67;9.83;;;;;;;;;;5068105;28;24517;-54
2022/04/13 06:43:26;;;;;;;12.23;9.30;;;;;;;;;;5068504;28;24445;-52
2022/04/13 06:45:53;;;;;;;11.60;9.10;;;;;;;;;;5067346;28;24976;-52
2022/04/13 06:48:19;;;;;;;11.15;9.00;;;;;;;;;;5078680;28;25092;-53
2022/04/13 06:50:44;;;;;;;11.70;9.40;;;;;;;;;;5069307;28;24437;-53
2022/04/13 06:53:09;;;;;;;13.13;10.15;;;;;;;;;;5084829;28;24449;-52
2022/04/13 06:55:37;;;;;;;11.88;9.52;;;;;;;;;;5084779;28;24418;-51
2022/04/13 06:58:02;;;;;;;11.10;8.43;;;;;;;;;;5072247;28;25070;-53
2022/04/13 07:00:28;;;;;;;12.30;9.90;;;;;;;;;;5079919;28;24860;-53
2022/04/13 07:02:57;;;;;;;11.93;8.80;;;;;;;;;;5071474;28;24475;-52
2022/04/13 07:05:22;;;;;;;11.43;9.63;;;;;;;;;;5068357;28;24587;-52
2022/04/13 07:07:47;;;;;;;12.43;8.97;;;;;;;;;;5078091;28;24726;-52
2022/04/13 07:10:12;;;;;;;11.82;10.07;;;;;;;;;;5066437;28;24492;-52
2022/04/13 07:12:39;;;;;;;12.20;9.65;;;;;;;;;;5081256;28;24491;-52
2022/04/13 07:15:05;;;;;;;13.68;9.80;;;;;;;;;;5086000;28;24425;-52
2022/04/13 07:17:30;;;;;;;10.57;9.05;;;;;;;;;;5085121;28;24435;-53
2022/04/13 07:19:55;;;;;;;11.67;9.47;;;;;;;;;;5067489;28;24431;-53
2022/04/13 07:22:20;;;;;;;13.20;9.87;;;;;;;;;;5066427;28;24410;-54
2022/04/13 07:24:45;;;;;;;13.20;9.82;;;;;;;;;;5073933;28;24518;-53
2022/04/13 07:27:10;;;;;;;11.50;9.85;;;;;;;;;;5086647;28;24411;-53
2022/04/13 07:29:35;;;;;;;11.73;9.57;;;;;;;;;;5073737;28;24956;-52
2022/04/13 07:32:01;;;;;;;10.57;9.40;;;;;;;;;;5082150;28;24437;-52
2022/04/13 07:34:26;;;;;;;13.00;10.40;;;;;;;;;;5072525;28;24454;-52
2022/04/13 07:36:51;;;;;;;14.07;10.10;;;;;;;;;;5066432;28;24394;-53
2022/04/13 07:39:16;;;;;;;15.77;10.88;;;;;;;;;;5066809;28;24430;-52
2022/04/13 07:41:41;;;;;;;12.90;9.97;;;;;;;;;;5065982;28;25203;-53
2022/04/13 07:44:06;;;;;;;13.20;9.90;;;;;;;;;;5065646;28;24451;-53
2022/04/13 07:46:32;;;;;;;13.87;9.50;;;;;;;;;;5066442;28;24403;-53
2022/04/13 07:48:57;;;;;;;13.97;10.17;;;;;;;;;;5066541;28;24394;-53
2022/04/13 07:51:22;;;;;;;11.07;9.60;;;;;;;;;;5069645;28;24482;-53
2022/04/13 07:53:47;;;;;;;13.80;10.03;;;;;;;;;;5066261;28;24418;-53
2022/04/13 07:56:12;;;;;;;13.90;9.77;;;;;;;;;;5077915;28;24422;-53
2022/04/13 07:58:37;;;;;;;13.70;10.77;;;;;;;;;;5066108;28;24956;-52
2022/04/13 08:01:03;;;;;;;13.40;10.20;;;;;;;;;;5068723;28;24972;-53
2022/04/13 08:03:28;;;;;;;11.83;10.30;;;;;;;;;;5080468;28;24495;-52
2022/04/13 08:05:53;;;;;;;11.65;9.80;;;;;;;;;;5086097;28;24776;-54
2022/04/13 08:08:18;;;;;;;11.65;9.32;;;;;;;;;;5080139;28;24813;-57
2022/04/13 08:10:45;;;;;;;11.80;9.65;;;;;;;;;;5069945;28;24426;-54
2022/04/13 08:13:10;;;;;;;13.90;10.43;;;;;;;;;;5071768;28;24405;-53
2022/04/13 08:15:35;;;;;;;11.52;10.20;;;;;;;;;;5089954;28;24765;-53
2022/04/13 08:18:00;;;;;;;12.70;10.50;;;;;;;;;;5081116;28;24414;-52
2022/04/13 08:20:25;;;;;;;11.63;9.80;;;;;;;;;;5069662;28;24435;-53
2022/04/13 08:22:51;;;;;;;11.67;9.70;;;;;;;;;;5085700;28;24572;-53
2022/04/13 08:25:16;;;;;;;14.70;10.30;;;;;;;;;;5076817;28;24433;-53
2022/04/13 08:27:41;;;;;;;11.60;9.90;;;;;;;;;;5090562;28;24484;-53
2022/04/13 08:30:06;;;;;;;12.52;10.30;;;;;;;;;;5080454;28;24617;-53
2022/04/13 08:32:32;;;;;;;14.43;10.70;;;;;;;;;;5070382;28;24725;-53
2022/04/13 08:34:57;;;;;;;13.15;11.05;;;;;;;;;;5069379;28;24426;-52
2022/04/13 08:37:24;;;;;;;12.70;9.60;;;;;;;;;;5070362;28;24463;-52
2022/04/13 08:39:49;;;;;;;13.40;10.25;;;;;;;;;;5073541;28;25003;-52
2022/04/13 08:42:14;;;;;;;12.15;10.40;;;;;;;;;;5078828;28;24466;-53
2022/04/13 08:44:45;;;;;;;13.27;10.00;;;;;;;;;;5084028;28;24423;-53
2022/04/13 08:47:21;;;;;;;13.20;10.17;;;;;;;;;;5069834;28;24738;-53
2022/04/13 08:49:50;;;;;;;12.38;9.30;;;;;;;;;;5073602;28;24433;-54
2022/04/13 08:52:28;;;;;;;9.65;8.55;;;;;;;;;;5083662;28;24849;-54
2022/04/13 08:54:54;;;;;;;12.18;9.68;;;;;;;;;;5069360;28;24430;-58
2022/04/13 08:57:21;;;;;;;15.30;9.80;;;;;;;;;;5079755;28;24445;-53
2022/04/13 08:59:49;;;;;;;11.40;9.70;;;;;;;;;;5088451;28;24944;-54
2022/04/13 09:02:34;;;;;;;10.90;9.10;;;;;;;;;;5070541;28;24456;-53
2022/04/13 09:05:00;;;;;;;11.52;9.80;;;;;;;;;;5068728;28;25073;-52
2022/04/13 09:07:30;;;;;;;11.25;9.82;;;;;;;;;;5072635;28;24426;-53
2022/04/13 09:09:55;;;;;;;13.13;9.20;;;;;;;;;;5082570;28;24446;-53
2022/04/13 09:12:21;;;;;;;12.63;9.20;;;;;;;;;;5069583;28;25256;-53
2022/04/13 09:14:46;;;;;;;11.57;10.03;;;;;;;;;;5068345;28;24422;-53
2022/04/13 09:17:11;;;;;;;11.37;8.90;;;;;;;;;;5068065;28;24431;-53
2022/04/13 09:19:37;;;;;;;10.63;9.23;;;;;;;;;;5072001;28;24861;-53
2022/04/13 09:22:03;;;;;;;11.67;9.37;;;;;;;;;;5088746;28;24426;-53
2022/04/13 09:24:29;;;;;;;11.45;9.55;;;;;;;;;;5080256;28;24426;-53
2022/04/13 09:26:54;;;;;;;13.47;9.40;;;;;;;;;;5068209;28;24418;-53
2022/04/13 09:29:19;;;;;;;10.75;9.00;;;;;;;;;;5082395;28;24500;-53
2022/04/13 09:31:44;;;;;;;11.23;8.70;;;;;;;;;;5071527;28;24608;-53
2022/04/13 09:34:10;;;;;;;10.17;8.27;;;;;;;;;;5068223;28;24433;-53
2022/04/13 09:36:35;;;;;;;11.53;8.47;;;;;;;;;;5089368;28;24387;-53
2022/04/13 09:39:00;;;;;;;10.30;9.00;;;;;;;;;;5076708;28;24852;-53
2022/04/13 09:41:36;;;;;;;10.60;8.50;;;;;;;;;;5078986;28;24426;-53
2022/04/13 09:44:01;;;;;;;10.90;8.75;;;;;;;;;;5078754;28;25214;-53
2022/04/13 09:46:28;;;;;;;9.80;8.40;;;;;;;;;;5087052;28;24433;-53
2022/04/13 09:49:09;;;;;;;9.45;7.47;;;;;;;;;;5088378;28;24426;-53
2022/04/13 09:51:36;;;;;;;9.07;8.00;;;;;;;;;;5072602;28;24624;-53
2022/04/13 09:54:04;;;;;;;11.15;7.93;;;;;;;;;;5067929;28;24464;-53
2022/04/13 09:56:29;;;;;;;11.98;7.90;;;;;;;;;;5071272;28;24426;-53
2022/04/13 09:58:54;;;;;;;10.27;8.18;;;;;;;;;;5087216;28;24517;-53
2022/04/13 10:01:20;;;;;;;9.38;7.75;;;;;;;;;;5074877;28;24472;-52
2022/04/13 10:03:55;;;;;;;8.55;6.60;;;;;;;;;;5068280;28;24387;-52
2022/04/13 10:06:27;;;;;;;8.52;7.10;;;;;;;;;;5085215;28;24428;-52
2022/04/13 10:09:06;;;;;;;10.13;7.20;;;;;;;;;;5070724;28;24834;-56
2022/04/13 10:11:31;;;;;;;9.75;7.35;;;;;;;;;;5087784;28;24488;-53
2022/04/13 10:14:00;;;;;;;11.95;7.00;;;;;;;;;;5077424;28;24476;-53
2022/04/13 10:16:30;;;;;;;7.90;6.70;;;;;;;;;;5081406;28;24487;-53
2022/04/13 10:18:56;;;;;;;8.35;6.78;;;;;;;;;;5073872;28;24437;-53
2022/04/13 10:21:35;;;;;;;7.90;6.90;;;;;;;;;;5084812;28;24453;-53
2022/04/13 10:24:02;;;;;;;10.00;6.60;;;;;;;;;;5075625;28;24427;-53
2022/04/13 10:26:27;;;;;;;10.05;6.75;;;;;;;;;;5067796;28;24472;-53
2022/04/13 10:28:52;;;;;;;8.25;6.85;;;;;;;;;;5068560;28;24509;-53
2022/04/13 10:31:17;;;;;;;7.10;6.40;;;;;;;;;;5077897;28;24534;-52
2022/04/13 10:33:49;;;;;;;7.93;6.70;;;;;;;;;;5085862;28;24995;-52
2022/04/13 10:36:15;;;;;;;6.85;5.05;;;;;;;;;;5069641;28;24426;-53
2022/04/13 10:38:40;;;;;;;5.90;5.30;;;;;;;;;;5068103;28;24390;-52
2022/04/13 10:41:06;;;;;;;5.50;4.87;;;;;;;;;;5069656;28;24471;-53
2022/04/13 10:43:33;;;;;;;5.73;5.13;;;;;;;;;;5067367;28;24449;-52
2022/04/13 10:45:58;;;;;;;5.83;4.80;;;;;;;;;;5067264;28;24418;-53
2022/04/13 10:48:26;;;;;;;5.55;5.05;;;;;;;;;;5081094;28;24423;-53
2022/04/13 10:50:57;;;;;;;6.60;5.00;;;;;;;;;;5085109;28;24529;-53
2022/04/13 10:53:25;;;;;;;5.30;4.80;;;;;;;;;;5087632;28;24394;-52
2022/04/13 10:55:57;;;;;;;5.67;5.07;;;;;;;;;;5085643;28;24448;-53
2022/04/13 10:58:34;;;;;;;6.15;5.28;;;;;;;;;;5077955;28;24453;-53
2022/04/13 11:01:02;;;;;;;8.63;4.82;;;;;;;;;;5083599;28;24819;-53
2022/04/13 11:03:32;;;;;;;6.35;5.10;;;;;;;;;;5087060;28;24485;-53
2022/04/13 11:05:57;;;;;;;5.55;5.03;;;;;;;;;;5070975;28;24458;-52
2022/04/13 11:08:32;;;;;;;7.20;5.47;;;;;;;;;;5068553;28;24464;-52
2022/04/13 11:10:57;;;;;;;7.20;5.28;;;;;;;;;;5069687;28;24537;-52
2022/04/13 11:13:23;;;;;;;6.03;5.43;;;;;;;;;;5070594;28;24517;-53
2022/04/13 11:15:50;;;;;;;6.63;5.82;;;;;;;;;;5068623;28;24842;-53
2022/04/13 11:18:18;;;;;;;7.35;5.40;;;;;;;;;;5067186;28;25082;-53
2022/04/13 11:20:59;;;;;;;7.60;5.22;;;;;;;;;;5073929;28;24998;-53
2022/04/13 11:23:40;;;;;;;6.70;5.00;;;;;;;;;;5066707;28;24406;-53
2022/04/13 11:26:05;;;;;;;6.10;5.50;;;;;;;;;;5066786;28;24812;-53
2022/04/13 11:28:31;;;;;;;7.70;5.40;;;;;;;;;;5067219;28;24939;-53
2022/04/13 11:30:59;;;;;;;7.07;5.72;;;;;;;;;;5069323;28;24451;-52
2022/04/13 11:33:38;;;;;;;6.88;5.90;;;;;;;;;;5066531;28;25177;-53
2022/04/13 11:36:03;;;;;;;5.60;5.00;;;;;;;;;;5065732;28;24443;-52
2022/04/13 11:38:31;;;;;;;7.53;6.23;;;;;;;;;;5066819;28;24433;-52
2022/04/13 11:41:03;;;;;;;7.73;5.80;;;;;;;;;;5066591;28;24510;-52
2022/04/13 11:43:28;;;;;;;8.63;5.80;;;;;;;;;;5080870;28;24437;-52
2022/04/13 11:45:54;;;;;;;6.60;5.70;;;;;;;;;;5084979;28;24430;-52
2022/04/13 11:48:32;;;;;;;7.20;5.63;;;;;;;;;;5074280;28;24824;-53
2022/04/13 11:51:16;;;;;;;6.90;5.88;;;;;;;;;;5066393;28;25235;-53
2022/04/13 11:53:54;;;;;;;7.15;6.25;;;;;;;;;;5066729;28;24394;-53
2022/04/13 11:56:30;;;;;;;7.90;6.30;;;;;;;;;;5066417;28;24434;-53
2022/04/13 11:58:55;;;;;;;7.70;6.25;;;;;;;;;;5066289;28;24986;-51
2022/04/13 12:01:22;;;;;;;8.30;5.90;;;;;;;;;;5072372;28;24422;-52
2022/04/13 12:03:47;;;;;;;6.03;5.35;;;;;;;;;;5081347;28;24437;-52
2022/04/13 12:06:14;;;;;;;6.60;5.90;;;;;;;;;;5065943;28;24423;-53
2022/04/13 12:08:40;;;;;;;7.05;5.80;;;;;;;;;;5079819;28;24819;-52
2022/04/13 12:11:06;;;;;;;6.00;5.40;;;;;;;;;;5068642;28;24438;-52
2022/04/13 12:13:43;;;;;;;6.28;5.68;;;;;;;;;;5083033;28;24418;-53
2022/04/13 12:16:09;;;;;;;7.68;5.90;;;;;;;;;;5078215;28;24427;-52
2022/04/13 12:18:34;;;;;;;6.60;5.60;;;;;;;;;;5069832;28;24471;-52
2022/04/13 12:21:07;;;;;;;6.90;5.77;;;;;;;;;;5074747;28;24476;-52
2022/04/13 12:23:34;;;;;;;7.97;6.43;;;;;;;;;;5066627;28;24560;-52
2022/04/13 12:25:59;;;;;;;7.53;6.13;;;;;;;;;;5066037;28;24434;-53
2022/04/13 12:28:25;;;;;;;7.55;6.55;;;;;;;;;;5075040;28;24427;-53
2022/04/13 12:31:04;;;;;;;7.90;6.30;;;;;;;;;;5085468;28;24473;-53
2022/04/13 12:33:30;;;;;;;7.70;6.45;;;;;;;;;;5078682;28;24944;-53
2022/04/13 12:36:00;;;;;;;6.90;6.20;;;;;;;;;;5072671;28;24429;-53
2022/04/13 12:38:32;;;;;;;7.03;6.07;;;;;;;;;;5085110;28;24934;-52
2022/04/13 12:41:16;;;;;;;7.37;6.53;;;;;;;;;;5081282;28;24431;-53
2022/04/13 12:43:42;;;;;;;7.15;6.43;;;;;;;;;;5066946;28;24463;-53
2022/04/13 12:46:09;;;;;;;7.32;6.13;;;;;;;;;;5071671;28;24829;-53
2022/04/13 12:48:34;;;;;;;7.53;5.80;;;;;;;;;;5085107;28;25018;-54
2022/04/13 12:51:00;;;;;;;7.57;5.50;;;;;;;;;;5085518;28;24511;-53
2022/04/13 12:53:26;;;;;;;7.15;5.50;;;;;;;;;;5085775;28;24429;-54
2022/04/13 12:55:55;;;;;;;8.00;6.10;;;;;;;;;;5075599;28;24445;-54
2022/04/13 12:58:20;;;;;;;7.17;5.83;;;;;;;;;;5089847;28;24986;-52
2022/04/13 13:00:52;;;;;;;7.70;6.40;;;;;;;;;;5077229;28;24472;-53
2022/04/13 13:03:18;;;;;;;7.28;6.05;;;;;;;;;;5087788;28;24426;-53
2022/04/13 13:05:44;;;;;;;7.68;6.07;;;;;;;;;;5085742;28;24993;-53
2022/04/13 13:08:09;;;;;;;7.40;6.60;;;;;;;;;;5088994;28;24995;-54
2022/04/13 13:10:34;;;;;;;7.23;6.00;;;;;;;;;;5088491;28;24992;-53
2022/04/13 13:13:12;;;;;;;9.43;6.20;;;;;;;;;;5089700;28;24403;-54
2022/04/13 13:15:37;;;;;;;8.10;6.85;;;;;;;;;;5086502;28;24421;-53
2022/04/13 13:18:06;;;;;;;10.07;6.90;;;;;;;;;;5077676;28;24430;-54
2022/04/13 13:20:32;;;;;;;7.60;6.80;;;;;;;;;;5087804;28;24995;-52
2022/04/13 13:22:57;;;;;;;7.93;7.13;;;;;;;;;;5088701;28;24433;-52
2022/04/13 13:25:22;;;;;;;7.13;6.35;;;;;;;;;;5087594;28;24599;-53
2022/04/13 13:27:49;;;;;;;8.10;7.30;;;;;;;;;;5069549;28;24423;-53
2022/04/13 13:30:15;;;;;;;8.15;7.35;;;;;;;;;;5068567;28;24449;-53
2022/04/13 13:32:41;;;;;;;10.50;7.53;;;;;;;;;;5068101;28;24468;-53
2022/04/13 13:35:07;;;;;;;7.90;7.03;;;;;;;;;;5067812;28;24874;-53
2022/04/13 13:37:47;;;;;;;10.80;6.90;;;;;;;;;;5077709;28;25009;-52
2022/04/13 13:40:35;;;;;;;10.05;7.18;;;;;;;;;;5075627;28;24961;-53
2022/04/13 13:43:01;;;;;;;7.35;6.25;;;;;;;;;;5068616;28;24448;-52
2022/04/13 13:45:30;;;;;;;8.93;7.13;;;;;;;;;;5081356;28;25011;-53
2022/04/13 13:47:55;;;;;;;8.43;7.00;;;;;;;;;;5088637;28;24402;-53
2022/04/13 13:50:20;;;;;;;10.27;7.90;;;;;;;;;;5088499;28;25028;-53
2022/04/13 13:52:45;;;;;;;7.97;7.13;;;;;;;;;;5077067;28;24421;-53
2022/04/13 13:55:10;;;;;;;8.57;7.07;;;;;;;;;;5078055;28;24411;-53
2022/04/13 13:57:36;;;;;;;9.30;6.60;;;;;;;;;;5070353;28;24418;-53
2022/04/13 14:00:01;;;;;;;7.95;6.80;;;;;;;;;;5109504;28;24461;-53
2022/04/13 14:02:26;;;;;;;9.07;7.50;;;;;;;;;;5089449;28;24405;-53
2022/04/13 14:04:51;;;;;;;9.20;7.80;;;;;;;;;;5088272;28;25296;-53
2022/04/13 14:07:17;;;;;;;8.38;7.47;;;;;;;;;;5088772;28;24978;-53
2022/04/13 14:09:44;;;;;;;7.80;7.00;;;;;;;;;;5086127;28;25085;-52
2022/04/13 14:12:09;;;;;;;7.50;6.50;;;;;;;;;;5107222;28;25305;-53
2022/04/13 14:14:34;;;;;;;7.40;6.50;;;;;;;;;;5090317;28;24406;-53
2022/04/13 14:17:00;;;;;;;9.38;7.20;;;;;;;;;;5088343;28;24482;-53
2022/04/13 14:19:25;;;;;;;9.05;7.22;;;;;;;;;;5040364;28;24414;-53
2022/04/13 14:21:50;;;;;;;7.57;6.50;;;;;;;;;;5027997;28;24630;-52
2022/04/13 14:24:16;;;;;;;9.53;7.03;;;;;;;;;;5011498;28;24505;-52
2022/04/13 14:26:41;;;;;;;7.90;6.97;;;;;;;;;;5059687;28;24433;-53
2022/04/13 14:29:06;;;;;;;10.45;8.20;;;;;;;;;;5079229;28;24413;-53
2022/04/13 14:31:31;;;;;;;8.90;7.40;;;;;;;;;;5078667;28;24427;-53